METAR Data
IDs: Format: Raw Decoded Include TAF

Data at: 1252 UTC 23 Jun 2021

METAR for:KSPB (Scappoose Ind Airpar, OR, US)
Text:KSPB 231153Z AUTO 35006KT 10SM CLR 14/11 A2990 RMK AO2 SLP123 T01440106 10189 20144 53011
Temperature: 14.4°C ( 58°F)
Dewpoint: 10.6°C ( 51°F) [RH = 78%]
Pressure (altimeter):29.90 inches Hg (1012.6 mb) [Sea level pressure: 1012.3 mb]
Winds:from the N (350 degrees) at 7 MPH (6 knots; 3.1 m/s)
Visibility:10 or more sm (16+ km)
Ceiling:at least 12,000 feet AGL
Clouds:sky clear below 12,000 feet AGL
QC Flag:automated observation with no human augmentation